sensor_id;sensor_type;location;lat;lon;timestamp;P1;durP1;ratioP1;P2;durP2;ratioP2
59846;SDS011;45728;48.788;2.302;2023-07-02T00:01:48;41.10;;;23.52;;
59846;SDS011;45728;48.788;2.302;2023-07-02T00:04:15;39.63;;;22.40;;
59846;SDS011;45728;48.788;2.302;2023-07-02T00:06:42;43.42;;;23.85;;
59846;SDS011;45728;48.788;2.302;2023-07-02T00:09:09;44.65;;;24.70;;
59846;SDS011;45728;48.788;2.302;2023-07-02T00:11:39;42.88;;;23.92;;
59846;SDS011;45728;48.788;2.302;2023-07-02T00:14:06;42.47;;;22.63;;
59846;SDS011;45728;48.788;2.302;2023-07-02T00:16:34;40.85;;;23.35;;
59846;SDS011;45728;48.788;2.302;2023-07-02T00:19:01;42.58;;;22.98;;
59846;SDS011;45728;48.788;2.302;2023-07-02T00:21:27;45.97;;;24.13;;
59846;SDS011;45728;48.788;2.302;2023-07-02T00:23:54;38.70;;;23.48;;
59846;SDS011;45728;48.788;2.302;2023-07-02T00:26:25;46.28;;;24.45;;
59846;SDS011;45728;48.788;2.302;2023-07-02T00:28:55;41.45;;;23.75;;
59846;SDS011;45728;48.788;2.302;2023-07-02T00:33:48;47.65;;;24.27;;
59846;SDS011;45728;48.788;2.302;2023-07-02T00:36:15;43.70;;;23.58;;
59846;SDS011;45728;48.788;2.302;2023-07-02T00:38:42;48.45;;;26.10;;
59846;SDS011;45728;48.788;2.302;2023-07-02T00:41:10;46.00;;;25.65;;
59846;SDS011;45728;48.788;2.302;2023-07-02T00:43:37;51.55;;;26.67;;
59846;SDS011;45728;48.788;2.302;2023-07-02T00:46:13;48.83;;;25.02;;
59846;SDS011;45728;48.788;2.302;2023-07-02T00:48:45;41.30;;;23.42;;
59846;SDS011;45728;48.788;2.302;2023-07-02T00:51:17;46.90;;;24.55;;
59846;SDS011;45728;48.788;2.302;2023-07-02T00:53:45;49.60;;;24.95;;
59846;SDS011;45728;48.788;2.302;2023-07-02T00:56:12;47.53;;;25.08;;
59846;SDS011;45728;48.788;2.302;2023-07-02T00:58:39;50.58;;;24.52;;
59846;SDS011;45728;48.788;2.302;2023-07-02T01:01:06;48.92;;;25.25;;
59846;SDS011;45728;48.788;2.302;2023-07-02T01:03:33;47.53;;;28.45;;
59846;SDS011;45728;48.788;2.302;2023-07-02T01:06:02;47.15;;;30.27;;
59846;SDS011;45728;48.788;2.302;2023-07-02T01:08:29;56.72;;;30.67;;
59846;SDS011;45728;48.788;2.302;2023-07-02T01:10:55;49.75;;;29.73;;
59846;SDS011;45728;48.788;2.302;2023-07-02T01:13:21;53.80;;;29.27;;
59846;SDS011;45728;48.788;2.302;2023-07-02T01:15:50;52.70;;;30.33;;
59846;SDS011;45728;48.788;2.302;2023-07-02T01:18:16;54.42;;;29.63;;
59846;SDS011;45728;48.788;2.302;2023-07-02T01:20:42;51.10;;;28.48;;
59846;SDS011;45728;48.788;2.302;2023-07-02T01:23:09;45.90;;;25.65;;
59846;SDS011;45728;48.788;2.302;2023-07-02T01:25:35;44.45;;;25.05;;
59846;SDS011;45728;48.788;2.302;2023-07-02T01:28:02;49.15;;;24.10;;
59846;SDS011;45728;48.788;2.302;2023-07-02T01:30:28;53.05;;;25.33;;
59846;SDS011;45728;48.788;2.302;2023-07-02T01:32:54;45.47;;;23.63;;
59846;SDS011;45728;48.788;2.302;2023-07-02T01:35:21;44.55;;;23.45;;
59846;SDS011;45728;48.788;2.302;2023-07-02T01:37:47;43.03;;;23.27;;
59846;SDS011;45728;48.788;2.302;2023-07-02T01:40:13;40.47;;;22.60;;
59846;SDS011;45728;48.788;2.302;2023-07-02T01:42:39;47.40;;;24.02;;
59846;SDS011;45728;48.788;2.302;2023-07-02T01:45:06;44.50;;;22.45;;
59846;SDS011;45728;48.788;2.302;2023-07-02T01:47:32;46.05;;;23.60;;
59846;SDS011;45728;48.788;2.302;2023-07-02T01:49:58;39.97;;;22.13;;
59846;SDS011;45728;48.788;2.302;2023-07-02T01:52:25;44.28;;;22.35;;
59846;SDS011;45728;48.788;2.302;2023-07-02T01:54:51;43.20;;;23.27;;
59846;SDS011;45728;48.788;2.302;2023-07-02T01:57:17;46.72;;;22.75;;
59846;SDS011;45728;48.788;2.302;2023-07-02T01:59:44;41.42;;;22.95;;
59846;SDS011;45728;48.788;2.302;2023-07-02T02:02:10;46.33;;;23.25;;
59846;SDS011;45728;48.788;2.302;2023-07-02T02:04:36;45.38;;;22.33;;
59846;SDS011;45728;48.788;2.302;2023-07-02T02:07:02;46.25;;;21.92;;
59846;SDS011;45728;48.788;2.302;2023-07-02T02:09:28;49.72;;;23.92;;
59846;SDS011;45728;48.788;2.302;2023-07-02T02:11:55;43.85;;;22.45;;
59846;SDS011;45728;48.788;2.302;2023-07-02T02:14:21;43.70;;;21.77;;
59846;SDS011;45728;48.788;2.302;2023-07-02T02:16:48;47.47;;;23.02;;
59846;SDS011;45728;48.788;2.302;2023-07-02T02:19:14;43.70;;;23.60;;
59846;SDS011;45728;48.788;2.302;2023-07-02T02:21:42;48.20;;;22.05;;
59846;SDS011;45728;48.788;2.302;2023-07-02T02:24:09;40.20;;;21.07;;
59846;SDS011;45728;48.788;2.302;2023-07-02T02:26:35;44.50;;;22.13;;
59846;SDS011;45728;48.788;2.302;2023-07-02T02:29:01;43.42;;;21.98;;
59846;SDS011;45728;48.788;2.302;2023-07-02T02:31:27;48.65;;;22.55;;
59846;SDS011;45728;48.788;2.302;2023-07-02T02:33:54;45.15;;;21.90;;
59846;SDS011;45728;48.788;2.302;2023-07-02T02:36:20;46.53;;;22.10;;
59846;SDS011;45728;48.788;2.302;2023-07-02T02:38:46;41.20;;;21.83;;
59846;SDS011;45728;48.788;2.302;2023-07-02T02:41:12;46.28;;;22.38;;
59846;SDS011;45728;48.788;2.302;2023-07-02T02:43:41;41.72;;;20.95;;
59846;SDS011;45728;48.788;2.302;2023-07-02T02:46:08;43.83;;;22.10;;
59846;SDS011;45728;48.788;2.302;2023-07-02T02:48:36;47.53;;;22.95;;
59846;SDS011;45728;48.788;2.302;2023-07-02T02:51:02;43.00;;;20.75;;
59846;SDS011;45728;48.788;2.302;2023-07-02T02:53:28;45.15;;;20.73;;
59846;SDS011;45728;48.788;2.302;2023-07-02T02:55:54;41.33;;;21.35;;
59846;SDS011;45728;48.788;2.302;2023-07-02T02:58:21;40.92;;;21.42;;
59846;SDS011;45728;48.788;2.302;2023-07-02T03:00:48;43.00;;;20.83;;
59846;SDS011;45728;48.788;2.302;2023-07-02T03:03:14;43.30;;;21.80;;
59846;SDS011;45728;48.788;2.302;2023-07-02T03:05:42;34.50;;;19.08;;
59846;SDS011;45728;48.788;2.302;2023-07-02T03:08:09;48.15;;;22.45;;
59846;SDS011;45728;48.788;2.302;2023-07-02T03:10:35;45.83;;;20.30;;
59846;SDS011;45728;48.788;2.302;2023-07-02T03:13:01;46.47;;;21.58;;
59846;SDS011;45728;48.788;2.302;2023-07-02T03:15:28;46.60;;;21.88;;
59846;SDS011;45728;48.788;2.302;2023-07-02T03:17:54;42.55;;;20.27;;
59846;SDS011;45728;48.788;2.302;2023-07-02T03:20:20;48.53;;;20.85;;
59846;SDS011;45728;48.788;2.302;2023-07-02T03:22:46;41.80;;;20.67;;
59846;SDS011;45728;48.788;2.302;2023-07-02T03:25:12;44.17;;;20.92;;
59846;SDS011;45728;48.788;2.302;2023-07-02T03:27:38;39.63;;;20.42;;
59846;SDS011;45728;48.788;2.302;2023-07-02T03:30:04;47.88;;;21.40;;
59846;SDS011;45728;48.788;2.302;2023-07-02T03:32:31;35.22;;;19.02;;
59846;SDS011;45728;48.788;2.302;2023-07-02T03:34:57;46.35;;;20.20;;
59846;SDS011;45728;48.788;2.302;2023-07-02T03:37:23;37.15;;;19.80;;
59846;SDS011;45728;48.788;2.302;2023-07-02T03:39:49;40.58;;;20.17;;
59846;SDS011;45728;48.788;2.302;2023-07-02T03:42:15;42.35;;;20.23;;
59846;SDS011;45728;48.788;2.302;2023-07-02T03:44:41;41.83;;;19.95;;
59846;SDS011;45728;48.788;2.302;2023-07-02T03:47:07;41.03;;;18.95;;
59846;SDS011;45728;48.788;2.302;2023-07-02T03:49:34;38.92;;;19.60;;
59846;SDS011;45728;48.788;2.302;2023-07-02T03:52:00;41.60;;;19.73;;
59846;SDS011;45728;48.788;2.302;2023-07-02T03:54:26;41.03;;;18.90;;
59846;SDS011;45728;48.788;2.302;2023-07-02T03:56:52;39.60;;;20.73;;
59846;SDS011;45728;48.788;2.302;2023-07-02T03:59:18;43.45;;;20.25;;
59846;SDS011;45728;48.788;2.302;2023-07-02T04:01:44;43.67;;;20.58;;
59846;SDS011;45728;48.788;2.302;2023-07-02T04:04:10;41.25;;;21.23;;
59846;SDS011;45728;48.788;2.302;2023-07-02T04:06:37;42.42;;;20.30;;
59846;SDS011;45728;48.788;2.302;2023-07-02T04:09:03;46.05;;;19.67;;
59846;SDS011;45728;48.788;2.302;2023-07-02T04:11:29;39.63;;;20.17;;
59846;SDS011;45728;48.788;2.302;2023-07-02T04:13:55;40.58;;;20.10;;
59846;SDS011;45728;48.788;2.302;2023-07-02T04:16:21;40.80;;;20.20;;
59846;SDS011;45728;48.788;2.302;2023-07-02T04:18:47;38.35;;;19.92;;
59846;SDS011;45728;48.788;2.302;2023-07-02T04:21:14;35.63;;;19.58;;
59846;SDS011;45728;48.788;2.302;2023-07-02T04:23:40;46.60;;;20.63;;
59846;SDS011;45728;48.788;2.302;2023-07-02T04:26:06;40.67;;;18.95;;
59846;SDS011;45728;48.788;2.302;2023-07-02T04:28:32;40.47;;;19.75;;
59846;SDS011;45728;48.788;2.302;2023-07-02T04:30:58;39.25;;;19.88;;
59846;SDS011;45728;48.788;2.302;2023-07-02T04:33:24;34.20;;;19.08;;
59846;SDS011;45728;48.788;2.302;2023-07-02T04:35:50;42.90;;;18.63;;
59846;SDS011;45728;48.788;2.302;2023-07-02T04:38:16;41.22;;;18.90;;
59846;SDS011;45728;48.788;2.302;2023-07-02T04:40:42;44.08;;;19.83;;
59846;SDS011;45728;48.788;2.302;2023-07-02T04:43:10;44.70;;;19.90;;
59846;SDS011;45728;48.788;2.302;2023-07-02T04:45:37;45.72;;;19.20;;
59846;SDS011;45728;48.788;2.302;2023-07-02T04:48:05;43.72;;;18.60;;
59846;SDS011;45728;48.788;2.302;2023-07-02T04:50:31;40.08;;;19.30;;
59846;SDS011;45728;48.788;2.302;2023-07-02T04:52:57;45.45;;;19.88;;
59846;SDS011;45728;48.788;2.302;2023-07-02T04:55:23;35.10;;;18.83;;
59846;SDS011;45728;48.788;2.302;2023-07-02T04:57:49;38.50;;;18.77;;
59846;SDS011;45728;48.788;2.302;2023-07-02T05:00:16;37.10;;;19.33;;
59846;SDS011;45728;48.788;2.302;2023-07-02T05:02:42;42.25;;;20.35;;
59846;SDS011;45728;48.788;2.302;2023-07-02T05:05:08;36.42;;;18.48;;
59846;SDS011;45728;48.788;2.302;2023-07-02T05:07:34;33.83;;;17.92;;
59846;SDS011;45728;48.788;2.302;2023-07-02T05:10:00;37.25;;;18.50;;
59846;SDS011;45728;48.788;2.302;2023-07-02T05:12:26;38.47;;;17.65;;
59846;SDS011;45728;48.788;2.302;2023-07-02T05:14:52;34.83;;;17.17;;
59846;SDS011;45728;48.788;2.302;2023-07-02T05:17:18;34.55;;;17.45;;
59846;SDS011;45728;48.788;2.302;2023-07-02T05:19:44;39.22;;;18.63;;
59846;SDS011;45728;48.788;2.302;2023-07-02T05:22:10;41.63;;;18.00;;
59846;SDS011;45728;48.788;2.302;2023-07-02T05:24:37;43.53;;;18.42;;
59846;SDS011;45728;48.788;2.302;2023-07-02T05:27:03;38.13;;;18.30;;
59846;SDS011;45728;48.788;2.302;2023-07-02T05:29:30;36.22;;;18.50;;
59846;SDS011;45728;48.788;2.302;2023-07-02T05:31:56;38.97;;;18.30;;
59846;SDS011;45728;48.788;2.302;2023-07-02T05:34:22;38.53;;;18.25;;
59846;SDS011;45728;48.788;2.302;2023-07-02T05:36:48;33.00;;;16.45;;
59846;SDS011;45728;48.788;2.302;2023-07-02T05:39:14;37.10;;;17.67;;
59846;SDS011;45728;48.788;2.302;2023-07-02T05:41:40;31.63;;;16.55;;
59846;SDS011;45728;48.788;2.302;2023-07-02T05:44:06;33.63;;;17.13;;
59846;SDS011;45728;48.788;2.302;2023-07-02T05:46:32;44.08;;;17.60;;
59846;SDS011;45728;48.788;2.302;2023-07-02T05:48:58;37.58;;;17.27;;
59846;SDS011;45728;48.788;2.302;2023-07-02T05:51:25;40.30;;;17.55;;
59846;SDS011;45728;48.788;2.302;2023-07-02T05:53:51;33.67;;;17.77;;
59846;SDS011;45728;48.788;2.302;2023-07-02T05:56:18;36.60;;;16.48;;
59846;SDS011;45728;48.788;2.302;2023-07-02T05:58:45;40.72;;;18.13;;
59846;SDS011;45728;48.788;2.302;2023-07-02T06:01:11;37.13;;;17.38;;
59846;SDS011;45728;48.788;2.302;2023-07-02T06:03:38;39.25;;;16.85;;
59846;SDS011;45728;48.788;2.302;2023-07-02T06:06:04;39.20;;;17.88;;
59846;SDS011;45728;48.788;2.302;2023-07-02T06:08:30;36.40;;;17.33;;
59846;SDS011;45728;48.788;2.302;2023-07-02T06:10:56;36.22;;;17.92;;
59846;SDS011;45728;48.788;2.302;2023-07-02T06:13:22;33.58;;;16.20;;
59846;SDS011;45728;48.788;2.302;2023-07-02T06:15:48;39.05;;;17.30;;
59846;SDS011;45728;48.788;2.302;2023-07-02T06:18:14;34.58;;;16.70;;
59846;SDS011;45728;48.788;2.302;2023-07-02T06:20:41;40.72;;;18.08;;
59846;SDS011;45728;48.788;2.302;2023-07-02T06:23:08;33.75;;;17.00;;
59846;SDS011;45728;48.788;2.302;2023-07-02T06:25:34;37.80;;;17.80;;
59846;SDS011;45728;48.788;2.302;2023-07-02T06:28:00;45.72;;;17.95;;
59846;SDS011;45728;48.788;2.302;2023-07-02T06:30:26;33.22;;;16.65;;
59846;SDS011;45728;48.788;2.302;2023-07-02T06:32:53;32.88;;;17.42;;
59846;SDS011;45728;48.788;2.302;2023-07-02T06:35:19;36.53;;;16.73;;
59846;SDS011;45728;48.788;2.302;2023-07-02T06:37:46;35.50;;;17.98;;
59846;SDS011;45728;48.788;2.302;2023-07-02T06:40:12;39.10;;;17.25;;
59846;SDS011;45728;48.788;2.302;2023-07-02T06:42:38;31.77;;;17.02;;
59846;SDS011;45728;48.788;2.302;2023-07-02T06:45:06;35.03;;;17.60;;
59846;SDS011;45728;48.788;2.302;2023-07-02T06:47:32;40.53;;;17.17;;
59846;SDS011;45728;48.788;2.302;2023-07-02T06:49:58;28.70;;;15.93;;
59846;SDS011;45728;48.788;2.302;2023-07-02T06:52:24;38.53;;;17.55;;
59846;SDS011;45728;48.788;2.302;2023-07-02T06:54:51;34.08;;;17.42;;
59846;SDS011;45728;48.788;2.302;2023-07-02T06:57:17;33.28;;;15.90;;
59846;SDS011;45728;48.788;2.302;2023-07-02T06:59:43;31.58;;;15.75;;
59846;SDS011;45728;48.788;2.302;2023-07-02T07:02:09;40.88;;;18.25;;
59846;SDS011;45728;48.788;2.302;2023-07-02T07:04:35;36.47;;;16.63;;
59846;SDS011;45728;48.788;2.302;2023-07-02T07:07:01;35.00;;;16.15;;
59846;SDS011;45728;48.788;2.302;2023-07-02T07:09:30;38.03;;;17.30;;
59846;SDS011;45728;48.788;2.302;2023-07-02T07:11:56;33.35;;;17.92;;
59846;SDS011;45728;48.788;2.302;2023-07-02T07:14:22;32.35;;;17.42;;
59846;SDS011;45728;48.788;2.302;2023-07-02T07:16:48;34.88;;;18.23;;
59846;SDS011;45728;48.788;2.302;2023-07-02T07:19:15;31.20;;;16.77;;
59846;SDS011;45728;48.788;2.302;2023-07-02T07:21:42;34.75;;;16.48;;
59846;SDS011;45728;48.788;2.302;2023-07-02T07:24:09;36.33;;;17.20;;
59846;SDS011;45728;48.788;2.302;2023-07-02T07:26:35;34.10;;;15.77;;
59846;SDS011;45728;48.788;2.302;2023-07-02T07:29:01;34.97;;;16.23;;
59846;SDS011;45728;48.788;2.302;2023-07-02T07:31:28;35.90;;;16.73;;
59846;SDS011;45728;48.788;2.302;2023-07-02T07:33:54;38.33;;;17.27;;
59846;SDS011;45728;48.788;2.302;2023-07-02T07:36:20;32.80;;;16.05;;
59846;SDS011;45728;48.788;2.302;2023-07-02T07:38:47;34.13;;;15.98;;
59846;SDS011;45728;48.788;2.302;2023-07-02T07:41:13;35.38;;;15.25;;
59846;SDS011;45728;48.788;2.302;2023-07-02T07:43:39;33.03;;;16.60;;
59846;SDS011;45728;48.788;2.302;2023-07-02T07:46:05;30.80;;;15.77;;
59846;SDS011;45728;48.788;2.302;2023-07-02T07:48:31;33.70;;;17.05;;
59846;SDS011;45728;48.788;2.302;2023-07-02T07:50:57;34.65;;;16.55;;
59846;SDS011;45728;48.788;2.302;2023-07-02T07:53:23;34.72;;;15.95;;
59846;SDS011;45728;48.788;2.302;2023-07-02T07:55:49;35.50;;;16.10;;
59846;SDS011;45728;48.788;2.302;2023-07-02T07:58:15;33.35;;;16.15;;
59846;SDS011;45728;48.788;2.302;2023-07-02T08:00:41;31.42;;;15.90;;
59846;SDS011;45728;48.788;2.302;2023-07-02T08:03:07;32.15;;;16.00;;
59846;SDS011;45728;48.788;2.302;2023-07-02T08:05:35;31.05;;;16.88;;
59846;SDS011;45728;48.788;2.302;2023-07-02T08:08:01;35.53;;;15.85;;
59846;SDS011;45728;48.788;2.302;2023-07-02T08:10:27;32.40;;;16.05;;
59846;SDS011;45728;48.788;2.302;2023-07-02T08:12:53;29.45;;;16.27;;
59846;SDS011;45728;48.788;2.302;2023-07-02T08:15:19;32.80;;;16.60;;
59846;SDS011;45728;48.788;2.302;2023-07-02T08:17:45;33.70;;;15.43;;
59846;SDS011;45728;48.788;2.302;2023-07-02T08:20:11;34.53;;;16.70;;
59846;SDS011;45728;48.788;2.302;2023-07-02T08:22:38;34.72;;;15.70;;
59846;SDS011;45728;48.788;2.302;2023-07-02T08:25:05;28.85;;;15.35;;
59846;SDS011;45728;48.788;2.302;2023-07-02T08:27:32;32.35;;;15.48;;
59846;SDS011;45728;48.788;2.302;2023-07-02T08:29:58;29.17;;;14.82;;
59846;SDS011;45728;48.788;2.302;2023-07-02T08:32:24;27.60;;;15.00;;
59846;SDS011;45728;48.788;2.302;2023-07-02T08:34:50;31.38;;;15.20;;
59846;SDS011;45728;48.788;2.302;2023-07-02T08:37:17;30.20;;;15.80;;
59846;SDS011;45728;48.788;2.302;2023-07-02T08:39:43;37.88;;;16.20;;
59846;SDS011;45728;48.788;2.302;2023-07-02T08:42:09;32.92;;;16.70;;
59846;SDS011;45728;48.788;2.302;2023-07-02T08:44:35;30.23;;;15.73;;
59846;SDS011;45728;48.788;2.302;2023-07-02T08:47:01;29.88;;;15.95;;
59846;SDS011;45728;48.788;2.302;2023-07-02T08:49:28;32.45;;;15.68;;
59846;SDS011;45728;48.788;2.302;2023-07-02T08:51:54;32.85;;;15.45;;
59846;SDS011;45728;48.788;2.302;2023-07-02T08:54:20;24.45;;;13.45;;
59846;SDS011;45728;48.788;2.302;2023-07-02T08:56:46;26.30;;;14.13;;
59846;SDS011;45728;48.788;2.302;2023-07-02T08:59:12;33.90;;;13.93;;
59846;SDS011;45728;48.788;2.302;2023-07-02T09:04:22;32.85;;;14.98;;
59846;SDS011;45728;48.788;2.302;2023-07-02T09:06:50;26.15;;;12.82;;
59846;SDS011;45728;48.788;2.302;2023-07-02T09:09:28;26.48;;;14.32;;
59846;SDS011;45728;48.788;2.302;2023-07-02T09:11:55;24.75;;;13.75;;
59846;SDS011;45728;48.788;2.302;2023-07-02T09:14:24;26.20;;;13.40;;
59846;SDS011;45728;48.788;2.302;2023-07-02T09:17:02;24.10;;;12.90;;
59846;SDS011;45728;48.788;2.302;2023-07-02T09:19:29;27.83;;;14.02;;
59846;SDS011;45728;48.788;2.302;2023-07-02T09:21:57;25.90;;;12.70;;
59846;SDS011;45728;48.788;2.302;2023-07-02T09:24:27;27.48;;;14.18;;
59846;SDS011;45728;48.788;2.302;2023-07-02T09:26:55;24.67;;;12.95;;
59846;SDS011;45728;48.788;2.302;2023-07-02T09:29:29;32.50;;;13.57;;
59846;SDS011;45728;48.788;2.302;2023-07-02T09:31:58;29.55;;;13.70;;
59846;SDS011;45728;48.788;2.302;2023-07-02T09:34:32;19.38;;;11.68;;
59846;SDS011;45728;48.788;2.302;2023-07-02T09:36:59;24.95;;;12.77;;
59846;SDS011;45728;48.788;2.302;2023-07-02T09:39:30;25.77;;;13.20;;
59846;SDS011;45728;48.788;2.302;2023-07-02T09:42:00;24.73;;;12.27;;
59846;SDS011;45728;48.788;2.302;2023-07-02T09:44:31;23.08;;;11.23;;
59846;SDS011;45728;48.788;2.302;2023-07-02T09:47:02;27.08;;;13.05;;
59846;SDS011;45728;48.788;2.302;2023-07-02T09:49:33;21.20;;;12.25;;
59846;SDS011;45728;48.788;2.302;2023-07-02T09:52:00;21.10;;;11.70;;
59846;SDS011;45728;48.788;2.302;2023-07-02T09:56:55;22.13;;;11.85;;
59846;SDS011;45728;48.788;2.302;2023-07-02T09:59:22;26.85;;;12.00;;
59846;SDS011;45728;48.788;2.302;2023-07-02T10:01:49;21.05;;;11.98;;
59846;SDS011;45728;48.788;2.302;2023-07-02T10:04:17;27.45;;;12.10;;
59846;SDS011;45728;48.788;2.302;2023-07-02T10:06:45;21.35;;;11.25;;
59846;SDS011;45728;48.788;2.302;2023-07-02T10:09:12;27.33;;;11.60;;
59846;SDS011;45728;48.788;2.302;2023-07-02T10:11:38;24.05;;;11.85;;
59846;SDS011;45728;48.788;2.302;2023-07-02T10:14:04;22.13;;;11.82;;
59846;SDS011;45728;48.788;2.302;2023-07-02T10:16:30;23.23;;;12.23;;
59846;SDS011;45728;48.788;2.302;2023-07-02T10:19:09;27.85;;;11.93;;
59846;SDS011;45728;48.788;2.302;2023-07-02T10:21:37;22.42;;;12.50;;
59846;SDS011;45728;48.788;2.302;2023-07-02T10:24:10;22.63;;;12.07;;
59846;SDS011;45728;48.788;2.302;2023-07-02T10:26:36;21.52;;;11.73;;
59846;SDS011;45728;48.788;2.302;2023-07-02T10:29:02;20.98;;;12.20;;
59846;SDS011;45728;48.788;2.302;2023-07-02T10:31:28;23.40;;;11.98;;
59846;SDS011;45728;48.788;2.302;2023-07-02T10:33:54;25.45;;;12.30;;
59846;SDS011;45728;48.788;2.302;2023-07-02T10:36:21;22.23;;;12.25;;
59846;SDS011;45728;48.788;2.302;2023-07-02T10:38:49;24.92;;;12.30;;
59846;SDS011;45728;48.788;2.302;2023-07-02T10:43:52;21.73;;;11.95;;
59846;SDS011;45728;48.788;2.302;2023-07-02T10:46:19;23.67;;;11.80;;
59846;SDS011;45728;48.788;2.302;2023-07-02T10:48:55;21.60;;;10.88;;
59846;SDS011;45728;48.788;2.302;2023-07-02T10:51:22;21.33;;;10.93;;
59846;SDS011;45728;48.788;2.302;2023-07-02T10:53:58;19.77;;;11.07;;
59846;SDS011;45728;48.788;2.302;2023-07-02T10:56:26;22.40;;;11.20;;
59846;SDS011;45728;48.788;2.302;2023-07-02T10:58:53;23.98;;;12.38;;
59846;SDS011;45728;48.788;2.302;2023-07-02T11:01:23;24.33;;;11.38;;
59846;SDS011;45728;48.788;2.302;2023-07-02T11:04:00;20.85;;;10.90;;
59846;SDS011;45728;48.788;2.302;2023-07-02T11:06:29;19.77;;;11.77;;
59846;SDS011;45728;48.788;2.302;2023-07-02T11:08:57;24.10;;;12.27;;
59846;SDS011;45728;48.788;2.302;2023-07-02T11:11:25;23.20;;;11.90;;
59846;SDS011;45728;48.788;2.302;2023-07-02T11:13:52;20.92;;;11.68;;
59846;SDS011;45728;48.788;2.302;2023-07-02T11:19:05;18.67;;;11.35;;
59846;SDS011;45728;48.788;2.302;2023-07-02T11:21:35;18.95;;;11.57;;
59846;SDS011;45728;48.788;2.302;2023-07-02T11:24:06;26.88;;;11.30;;
59846;SDS011;45728;48.788;2.302;2023-07-02T11:26:40;19.20;;;11.15;;
59846;SDS011;45728;48.788;2.302;2023-07-02T11:29:07;22.73;;;11.93;;
59846;SDS011;45728;48.788;2.302;2023-07-02T11:31:36;21.33;;;11.00;;
59846;SDS011;45728;48.788;2.302;2023-07-02T11:34:11;18.05;;;10.18;;
59846;SDS011;45728;48.788;2.302;2023-07-02T11:36:37;19.02;;;10.20;;
59846;SDS011;45728;48.788;2.302;2023-07-02T11:39:03;16.77;;;10.85;;
59846;SDS011;45728;48.788;2.302;2023-07-02T11:41:40;18.02;;;10.20;;
59846;SDS011;45728;48.788;2.302;2023-07-02T11:44:08;21.75;;;11.60;;
59846;SDS011;45728;48.788;2.302;2023-07-02T11:46:34;19.05;;;11.63;;
59846;SDS011;45728;48.788;2.302;2023-07-02T11:49:01;20.33;;;11.52;;
59846;SDS011;45728;48.788;2.302;2023-07-02T11:51:32;18.63;;;11.43;;
59846;SDS011;45728;48.788;2.302;2023-07-02T11:53:58;22.75;;;10.93;;
59846;SDS011;45728;48.788;2.302;2023-07-02T11:56:24;21.67;;;11.98;;
59846;SDS011;45728;48.788;2.302;2023-07-02T11:58:50;17.75;;;11.18;;
59846;SDS011;45728;48.788;2.302;2023-07-02T12:01:16;20.65;;;12.18;;
59846;SDS011;45728;48.788;2.302;2023-07-02T12:03:43;21.40;;;11.75;;
59846;SDS011;45728;48.788;2.302;2023-07-02T12:06:10;21.05;;;11.35;;
59846;SDS011;45728;48.788;2.302;2023-07-02T12:08:36;18.63;;;10.90;;
59846;SDS011;45728;48.788;2.302;2023-07-02T12:11:02;18.20;;;11.23;;
59846;SDS011;45728;48.788;2.302;2023-07-02T12:13:28;17.67;;;10.82;;
59846;SDS011;45728;48.788;2.302;2023-07-02T12:15:54;17.45;;;9.80;;
59846;SDS011;45728;48.788;2.302;2023-07-02T12:18:20;17.52;;;10.45;;
59846;SDS011;45728;48.788;2.302;2023-07-02T12:20:46;19.35;;;10.57;;
59846;SDS011;45728;48.788;2.302;2023-07-02T12:23:13;18.48;;;10.93;;
59846;SDS011;45728;48.788;2.302;2023-07-02T12:25:39;20.85;;;11.25;;
59846;SDS011;45728;48.788;2.302;2023-07-02T12:28:05;15.75;;;10.35;;
59846;SDS011;45728;48.788;2.302;2023-07-02T12:30:31;19.58;;;10.73;;
59846;SDS011;45728;48.788;2.302;2023-07-02T12:32:59;18.63;;;10.50;;
59846;SDS011;45728;48.788;2.302;2023-07-02T12:35:25;18.88;;;10.45;;
59846;SDS011;45728;48.788;2.302;2023-07-02T12:37:52;16.92;;;9.00;;
59846;SDS011;45728;48.788;2.302;2023-07-02T12:40:19;18.90;;;8.93;;
59846;SDS011;45728;48.788;2.302;2023-07-02T12:42:46;22.02;;;10.43;;
59846;SDS011;45728;48.788;2.302;2023-07-02T12:45:13;16.77;;;9.52;;
59846;SDS011;45728;48.788;2.302;2023-07-02T12:47:40;20.63;;;9.73;;
59846;SDS011;45728;48.788;2.302;2023-07-02T12:50:08;20.45;;;10.23;;
59846;SDS011;45728;48.788;2.302;2023-07-02T12:52:35;16.67;;;10.13;;
59846;SDS011;45728;48.788;2.302;2023-07-02T12:55:01;17.20;;;9.65;;
59846;SDS011;45728;48.788;2.302;2023-07-02T12:57:28;16.83;;;9.60;;
59846;SDS011;45728;48.788;2.302;2023-07-02T12:59:54;17.48;;;10.23;;
59846;SDS011;45728;48.788;2.302;2023-07-02T13:02:21;18.42;;;10.02;;
59846;SDS011;45728;48.788;2.302;2023-07-02T13:04:50;14.95;;;8.70;;
59846;SDS011;45728;48.788;2.302;2023-07-02T13:07:16;19.60;;;10.52;;
59846;SDS011;45728;48.788;2.302;2023-07-02T13:09:42;15.27;;;9.40;;
59846;SDS011;45728;48.788;2.302;2023-07-02T13:12:10;17.48;;;9.10;;
59846;SDS011;45728;48.788;2.302;2023-07-02T13:14:36;15.68;;;9.27;;
59846;SDS011;45728;48.788;2.302;2023-07-02T13:17:03;17.73;;;9.38;;
59846;SDS011;45728;48.788;2.302;2023-07-02T13:19:31;16.80;;;9.77;;
59846;SDS011;45728;48.788;2.302;2023-07-02T13:21:57;19.80;;;9.48;;
59846;SDS011;45728;48.788;2.302;2023-07-02T13:24:23;17.95;;;9.20;;
59846;SDS011;45728;48.788;2.302;2023-07-02T13:26:50;16.90;;;10.10;;
59846;SDS011;45728;48.788;2.302;2023-07-02T13:29:16;16.88;;;9.45;;
59846;SDS011;45728;48.788;2.302;2023-07-02T13:31:42;16.23;;;9.35;;
59846;SDS011;45728;48.788;2.302;2023-07-02T13:34:08;19.60;;;9.95;;
59846;SDS011;45728;48.788;2.302;2023-07-02T13:36:34;17.67;;;9.82;;
59846;SDS011;45728;48.788;2.302;2023-07-02T13:39:00;17.33;;;8.52;;
59846;SDS011;45728;48.788;2.302;2023-07-02T13:41:28;16.73;;;9.45;;
59846;SDS011;45728;48.788;2.302;2023-07-02T13:43:56;16.20;;;9.20;;
59846;SDS011;45728;48.788;2.302;2023-07-02T13:46:22;21.77;;;9.63;;
59846;SDS011;45728;48.788;2.302;2023-07-02T13:48:48;16.23;;;9.40;;
59846;SDS011;45728;48.788;2.302;2023-07-02T13:51:14;15.43;;;9.15;;
59846;SDS011;45728;48.788;2.302;2023-07-02T13:53:40;14.88;;;8.95;;
59846;SDS011;45728;48.788;2.302;2023-07-02T13:56:06;16.35;;;9.32;;
59846;SDS011;45728;48.788;2.302;2023-07-02T14:01:23;14.93;;;8.25;;
59846;SDS011;45728;48.788;2.302;2023-07-02T14:03:49;17.65;;;9.00;;
59846;SDS011;45728;48.788;2.302;2023-07-02T14:06:16;18.17;;;9.88;;
59846;SDS011;45728;48.788;2.302;2023-07-02T14:08:42;16.13;;;8.98;;
59846;SDS011;45728;48.788;2.302;2023-07-02T14:11:08;17.17;;;9.07;;
59846;SDS011;45728;48.788;2.302;2023-07-02T14:13:34;17.67;;;9.05;;
59846;SDS011;45728;48.788;2.302;2023-07-02T14:16:01;18.67;;;8.85;;
59846;SDS011;45728;48.788;2.302;2023-07-02T14:18:27;17.58;;;9.15;;
59846;SDS011;45728;48.788;2.302;2023-07-02T14:20:53;19.05;;;8.88;;
59846;SDS011;45728;48.788;2.302;2023-07-02T14:23:20;16.15;;;8.52;;
59846;SDS011;45728;48.788;2.302;2023-07-02T14:25:46;17.75;;;8.65;;
59846;SDS011;45728;48.788;2.302;2023-07-02T14:28:12;16.17;;;9.07;;
59846;SDS011;45728;48.788;2.302;2023-07-02T14:30:38;19.75;;;8.57;;
59846;SDS011;45728;48.788;2.302;2023-07-02T14:33:05;15.85;;;8.77;;
59846;SDS011;45728;48.788;2.302;2023-07-02T14:35:31;15.18;;;9.18;;
59846;SDS011;45728;48.788;2.302;2023-07-02T14:37:57;14.68;;;8.73;;